createdAt,value
2022-08-23T00:03:04.038Z,98535.88
2022-08-23T00:06:10.714Z,98570.22
2022-08-23T00:09:15.421Z,98581.25
2022-08-23T00:12:23.572Z,98575.78
2022-08-23T00:15:28.233Z,98593.91
2022-08-23T00:18:32.990Z,98577.81
2022-08-23T00:21:39.631Z,98598.41
2022-08-23T00:24:44.584Z,98573.22
2022-08-23T00:27:49.179Z,98574.59
2022-08-23T00:30:54.221Z,98592.59
2022-08-23T00:33:58.800Z,98591.94
2022-08-23T00:37:04.152Z,98611.34
2022-08-23T00:40:12.071Z,98619.13
2022-08-23T00:43:49.388Z,98590.59
2022-08-23T00:47:15.746Z,98628.56
2022-08-23T00:50:29.610Z,98600.72
2022-08-23T00:53:38.600Z,98613.88
2022-08-23T00:56:44.264Z,98596.72
2022-08-23T00:59:48.633Z,98610.16
2022-08-23T01:02:54.817Z,98580.06
2022-08-23T01:06:17.819Z,98625.56
2022-08-23T01:09:23.591Z,98624.84
2022-08-23T01:12:37.390Z,98580.47
2022-08-23T01:15:49.684Z,98619.22
2022-08-23T01:18:56.887Z,98624.75
2022-08-23T01:22:13.959Z,98627.72
2022-08-23T01:25:22.706Z,98628.66
2022-08-23T01:28:27.514Z,98632.00
2022-08-23T01:31:32.715Z,98622.69
2022-08-23T01:34:38.249Z,98633.06
2022-08-23T01:37:50.264Z,98609.56
2022-08-23T01:40:55.089Z,98639.63
2022-08-23T01:43:59.993Z,98622.41
2022-08-23T01:47:07.040Z,98610.13
2022-08-23T01:50:13.852Z,98636.22
2022-08-23T01:53:18.561Z,98636.50
2022-08-23T01:56:39.109Z,98644.53
2022-08-23T01:59:46.432Z,98624.28
2022-08-23T02:02:51.306Z,98639.69
2022-08-23T02:05:56.248Z,98637.44
2022-08-23T02:09:04.635Z,98631.28
2022-08-23T02:12:13.541Z,98634.63
2022-08-23T02:15:18.898Z,98648.38
2022-08-23T02:18:24.622Z,98641.13
2022-08-23T02:21:34.031Z,98638.34
2022-08-23T02:24:45.675Z,98636.47
2022-08-23T02:27:50.567Z,98640.19
2022-08-23T02:30:55.410Z,98640.13
2022-08-23T02:34:01.399Z,98648.66
2022-08-23T02:37:10.341Z,98661.47
2022-08-23T02:40:15.005Z,98653.00
2022-08-23T02:43:19.701Z,98658.44
2022-08-23T02:46:25.463Z,98668.06
2022-08-23T02:49:31.875Z,98677.03
2022-08-23T02:52:37.424Z,98654.69
2022-08-23T02:55:41.581Z,98655.66
2022-08-23T02:58:54.469Z,98651.25
2022-08-23T03:02:01.035Z,98650.16
2022-08-23T03:05:13.810Z,98679.53
2022-08-23T03:08:19.760Z,98665.78
2022-08-23T03:11:26.557Z,98669.13
2022-08-23T03:14:31.266Z,98657.88
2022-08-23T03:17:37.007Z,98680.72
2022-08-23T03:20:45.650Z,98666.22
2022-08-23T03:23:51.722Z,98629.81
2022-08-23T03:26:56.794Z,98683.22
2022-08-23T03:30:01.456Z,98687.78
2022-08-23T03:33:08.034Z,98685.75
2022-08-23T03:36:14.192Z,98684.75
2022-08-23T03:39:19.021Z,98667.56
2022-08-23T03:42:24.136Z,98679.88
2022-08-23T03:45:35.916Z,98669.22
2022-08-23T03:48:40.603Z,98697.09
2022-08-23T03:51:45.324Z,98697.16
2022-08-23T03:54:51.221Z,98699.13
2022-08-23T03:57:56.269Z,98691.91
2022-08-23T04:01:00.825Z,98706.16
2022-08-23T04:04:06.163Z,98714.91
2022-08-23T04:07:21.550Z,98698.97
2022-08-23T04:10:30.186Z,98705.78
2022-08-23T04:13:36.997Z,98718.44
2022-08-23T04:16:42.692Z,98725.25
2022-08-23T04:25:58.752Z,98715.97
2022-08-23T04:29:04.050Z,98741.13
2022-08-23T04:32:12.822Z,98747.94
2022-08-23T04:35:18.411Z,98733.66
2022-08-23T04:38:25.028Z,98741.50
2022-08-23T04:41:54.897Z,98742.34
2022-08-23T04:45:00.158Z,98739.84
2022-08-23T04:48:06.496Z,98754.34
2022-08-23T04:51:18.786Z,98750.59
2022-08-23T04:54:24.215Z,98768.66
2022-08-23T04:57:52.331Z,98753.16
2022-08-23T05:01:05.746Z,98756.38
2022-08-23T05:04:11.580Z,98780.34
2022-08-23T05:07:17.624Z,98776.81
2022-08-23T05:10:22.580Z,98791.41
2022-08-23T05:13:31.188Z,98799.31
2022-08-23T05:16:41.563Z,98790.69
2022-08-23T05:19:47.390Z,98809.72
2022-08-23T05:22:52.973Z,98830.38
2022-08-23T05:26:03.369Z,98811.00
2022-08-23T05:29:14.666Z,98827.56
2022-08-23T05:32:23.875Z,98838.59
2022-08-23T05:35:28.420Z,98839.44
2022-08-23T05:38:33.731Z,98839.31
2022-08-23T05:41:39.211Z,98842.00
2022-08-23T05:44:48.435Z,98837.06
2022-08-23T05:47:55.770Z,98840.63
2022-08-23T05:51:15.879Z,98836.47
2022-08-23T05:54:21.250Z,98861.75
2022-08-23T05:57:41.515Z,98861.69
2022-08-23T06:00:46.349Z,98867.13
2022-08-23T06:03:52.257Z,98857.41
2022-08-23T06:06:59.644Z,98880.56
2022-08-23T06:10:06.409Z,98879.06
2022-08-23T06:13:11.265Z,98890.19
2022-08-23T06:16:17.617Z,98884.44
2022-08-23T06:19:23.687Z,98890.84
2022-08-23T06:22:48.040Z,98889.31
2022-08-23T06:25:52.644Z,98892.41
2022-08-23T06:29:03.395Z,98914.47
2022-08-23T06:32:09.191Z,98911.78
2022-08-23T06:35:37.594Z,98908.34
2022-08-23T06:38:58.057Z,98928.34
2022-08-23T06:42:41.748Z,98925.31
2022-08-23T06:45:50.202Z,98938.28
2022-08-23T06:49:01.642Z,98940.00
2022-08-23T06:52:06.598Z,98948.25
2022-08-23T06:55:34.365Z,98943.50
2022-08-23T06:58:54.919Z,98955.81
2022-08-23T07:02:11.318Z,98953.59
2022-08-23T07:05:33.963Z,98945.88
2022-08-23T07:09:05.792Z,98962.00
2022-08-23T07:12:11.821Z,98950.78
2022-08-23T07:15:19.871Z,98965.03
2022-08-23T07:18:24.510Z,98975.50
2022-08-23T07:21:29.425Z,98974.19
2022-08-23T07:24:34.777Z,98989.28
2022-08-23T07:27:40.647Z,98994.09
2022-08-23T07:30:46.553Z,98981.44
2022-08-23T07:33:52.729Z,99003.28
2022-08-23T07:36:59.282Z,98999.16
2022-08-23T07:40:04.262Z,99003.09
2022-08-23T07:43:10.408Z,99003.53
2022-08-23T07:46:15.544Z,99013.28
2022-08-23T07:49:21.510Z,99021.72
2022-08-23T07:52:27.415Z,99021.81
2022-08-23T07:55:32.316Z,98999.41
2022-08-23T07:58:50.976Z,99036.31
2022-08-23T08:02:12.711Z,99055.25
2022-08-23T08:05:21.463Z,99038.88
2022-08-23T08:08:27.852Z,99048.59
2022-08-23T08:11:35.470Z,99053.34
2022-08-23T08:14:43.184Z,99053.44
2022-08-23T08:17:51.677Z,99071.09
2022-08-23T08:20:56.347Z,99068.22
2022-08-23T08:24:23.767Z,99078.06
2022-08-23T08:27:33.990Z,99099.66
2022-08-23T08:30:40.709Z,99070.03
2022-08-23T08:33:45.529Z,99074.84
2022-08-23T08:36:55.442Z,99075.59
2022-08-23T08:40:02.907Z,99065.53
2022-08-23T08:43:32.103Z,99101.38
2022-08-23T08:46:48.863Z,99103.28
2022-08-23T08:50:09.820Z,99103.63
2022-08-23T08:53:38.964Z,99111.75
2022-08-23T08:56:54.943Z,99109.94
2022-08-23T09:00:15.707Z,99116.59
2022-08-23T09:03:22.798Z,99117.53
2022-08-23T09:07:22.590Z,99117.13
2022-08-23T09:10:41.132Z,99130.72
2022-08-23T09:13:47.278Z,99133.25
2022-08-23T09:17:05.550Z,99129.31
2022-08-23T09:20:11.752Z,99146.22
2022-08-23T09:23:26.268Z,99144.63
2022-08-23T09:26:33.971Z,99148.16
2022-08-23T09:29:41.478Z,99164.31
2022-08-23T09:32:47.916Z,99177.28
2022-08-23T09:36:29.552Z,99173.84
2022-08-23T09:39:40.321Z,99182.31
2022-08-23T09:43:05.702Z,99206.66
2022-08-23T09:46:11.235Z,99189.25
2022-08-23T09:49:31.736Z,99220.00
2022-08-23T09:52:50.101Z,99227.16
2022-08-23T09:55:58.840Z,99225.66
2022-08-23T09:59:03.768Z,99231.63
2022-08-23T10:02:27.511Z,99226.75
2022-08-23T10:05:42.106Z,99232.44
2022-08-23T10:08:56.999Z,99244.09
2022-08-23T10:12:04.564Z,99258.56
2022-08-23T10:15:12.805Z,99253.97
2022-08-23T10:18:27.238Z,99274.69
2022-08-23T10:21:48.138Z,99276.66
2022-08-23T10:25:05.523Z,99266.88
2022-08-23T10:28:42.911Z,99302.31
2022-08-23T10:31:59.745Z,99305.88
2022-08-23T10:35:30.203Z,99306.63
2022-08-23T10:38:46.520Z,99311.22
2022-08-23T10:42:12.506Z,99331.56
2022-08-23T10:45:27.518Z,99330.03
2022-08-23T10:49:01.554Z,99340.34
2022-08-23T10:52:12.184Z,99350.38
2022-08-23T10:55:36.890Z,99360.41
2022-08-23T10:58:47.929Z,99355.25
2022-08-23T11:02:18.051Z,99374.91
2022-08-23T11:05:31.976Z,99358.22
2022-08-23T11:08:47.946Z,99394.41
2022-08-23T11:12:20.643Z,99400.78
2022-08-23T11:15:35.495Z,99390.47
2022-08-23T11:18:51.431Z,99402.81
2022-08-23T11:22:55.277Z,99415.59
2022-08-23T11:26:00.504Z,99395.47
2022-08-23T11:29:08.342Z,99421.41
2022-08-23T11:32:29.982Z,99421.63
2022-08-23T11:35:54.081Z,99421.81
2022-08-23T11:39:07.696Z,99423.53
2022-08-23T11:42:12.831Z,99430.69
2022-08-23T11:45:42.660Z,99444.03
2022-08-23T11:48:57.020Z,99446.72
2022-08-23T11:52:13.390Z,99451.91
2022-08-23T11:55:24.401Z,99460.97
2022-08-23T11:58:43.729Z,99471.09
2022-08-23T12:01:48.512Z,99464.88
2022-08-23T12:04:56.347Z,99469.56
2022-08-23T12:08:06.890Z,99484.47
2022-08-23T12:11:12.503Z,99475.19
2022-08-23T12:14:34.292Z,99486.66
2022-08-23T12:17:42.656Z,99492.47
2022-08-23T12:20:49.234Z,99487.94
2022-08-23T12:24:01.310Z,99487.91
2022-08-23T12:27:31.011Z,99499.34
2022-08-23T12:31:07.816Z,99516.16
2022-08-23T12:34:19.406Z,99498.50
2022-08-23T12:37:33.376Z,99479.59
2022-08-23T12:40:42.861Z,99516.94
2022-08-23T12:44:03.214Z,99455.72
2022-08-23T12:47:21.910Z,99462.69
2022-08-23T12:50:40.579Z,99512.97
2022-08-23T12:53:46.511Z,99534.56
2022-08-23T12:56:55.171Z,99541.53
2022-08-23T13:00:25.871Z,99533.59
2022-08-23T13:03:39.862Z,99514.13
2022-08-23T13:06:51.858Z,99534.28
2022-08-23T13:09:57.586Z,99537.31
2022-08-23T13:13:02.610Z,99544.47
2022-08-23T13:16:30.080Z,99538.00
2022-08-23T13:19:34.912Z,99537.94
2022-08-23T13:22:56.138Z,99525.63
2022-08-23T13:26:27.033Z,99533.22
2022-08-23T13:29:32.447Z,99559.31
2022-08-23T13:32:44.390Z,99560.84
2022-08-23T13:35:51.915Z,99565.66
2022-08-23T13:38:57.212Z,99564.47
2022-08-23T13:42:02.087Z,99556.97
2022-08-23T13:45:15.026Z,99539.50
2022-08-23T13:48:31.842Z,99440.16
2022-08-23T13:51:41.062Z,99563.09
2022-08-23T13:54:50.743Z,99561.03
2022-08-23T13:57:59.739Z,99500.56
2022-08-23T14:01:18.649Z,99577.47
2022-08-23T14:04:23.563Z,99524.50
2022-08-23T14:07:28.125Z,99550.88
2022-08-23T14:10:32.641Z,99566.34
2022-08-23T14:13:38.239Z,99576.97
2022-08-23T14:16:43.266Z,99596.13
2022-08-23T14:20:32.281Z,99602.25
2022-08-23T14:23:13.491Z,99603.97
2022-08-23T14:26:20.851Z,99601.19
2022-08-23T14:29:29.551Z,99586.59
2022-08-23T14:32:39.511Z,99614.97
2022-08-23T14:35:45.324Z,99563.41
2022-08-23T14:38:53.695Z,99620.31
2022-08-23T14:41:59.240Z,99554.34
2022-08-23T14:45:03.959Z,99627.91
2022-08-23T14:48:08.702Z,99598.38
2022-08-23T14:51:35.708Z,99635.31
2022-08-23T14:54:43.058Z,99644.63
2022-08-23T14:57:52.641Z,99639.97
2022-08-23T15:00:57.562Z,99628.53
2022-08-23T15:04:08.249Z,99646.66
2022-08-23T15:07:20.168Z,99633.69
2022-08-23T15:13:55.494Z,99638.31
2022-08-23T15:17:04.076Z,99635.41
2022-08-23T15:20:08.744Z,99641.38
2022-08-23T15:23:13.289Z,99652.22
2022-08-23T15:26:22.959Z,99643.03
2022-08-23T15:29:29.031Z,99660.25
2022-08-23T15:32:33.761Z,99604.78
2022-08-23T15:35:49.863Z,99650.09
2022-08-23T15:38:55.295Z,99664.38
2022-08-23T15:42:00.144Z,99661.78
2022-08-23T15:45:06.048Z,99663.63
2022-08-23T15:48:22.953Z,99659.31
2022-08-23T15:51:27.616Z,99667.44
2022-08-23T15:54:32.588Z,99681.09
2022-08-23T15:57:46.856Z,99653.75
2022-08-23T16:00:52.020Z,99682.44
2022-08-23T16:03:57.053Z,99699.44
2022-08-23T16:07:02.049Z,99689.34
2022-08-23T16:10:08.105Z,99689.50
2022-08-23T16:13:12.988Z,99690.72
2022-08-23T16:16:30.310Z,99709.91
2022-08-23T16:19:35.001Z,99705.41
2022-08-23T16:22:40.639Z,99716.78
2022-08-23T16:25:45.263Z,99692.63
2022-08-23T16:28:52.720Z,99722.13
2022-08-23T16:31:57.308Z,99711.69
2022-08-23T16:35:02.003Z,99707.94
2022-08-23T16:38:06.874Z,99731.38
2022-08-23T16:41:12.281Z,99731.22
2022-08-23T16:44:16.913Z,99725.56
2022-08-23T16:47:21.792Z,99720.63
2022-08-23T16:50:26.578Z,99733.06
2022-08-23T16:53:31.373Z,99733.44
2022-08-23T16:56:37.546Z,99740.50
2022-08-23T16:59:41.979Z,99753.78
2022-08-23T17:02:46.585Z,99731.47
2022-08-23T17:05:51.309Z,99744.66
2022-08-23T17:08:56.040Z,99748.63
2022-08-23T17:12:00.624Z,99741.13
2022-08-23T17:15:08.140Z,99749.28
2022-08-23T17:18:12.912Z,99729.66
2022-08-23T17:21:17.549Z,99747.06
2022-08-23T17:24:22.135Z,99755.91
2022-08-23T17:27:26.973Z,99741.09
2022-08-23T17:30:32.028Z,99746.84
2022-08-23T17:33:36.454Z,99746.97
2022-08-23T17:36:55.693Z,99742.97
2022-08-23T17:40:00.515Z,99760.72
2022-08-23T17:43:06.372Z,99772.75
2022-08-23T17:46:11.208Z,99756.19
2022-08-23T17:49:17.404Z,99756.97
2022-08-23T17:52:21.974Z,99769.06
2022-08-23T17:55:26.671Z,99790.47
2022-08-23T17:58:34.256Z,99779.31
2022-08-23T18:01:39.360Z,99795.13
2022-08-23T18:04:43.920Z,99792.69
2022-08-23T18:07:48.414Z,99805.66
2022-08-23T18:10:52.815Z,99819.66
2022-08-23T18:13:57.533Z,99794.41
2022-08-23T18:17:02.819Z,99805.34
2022-08-23T18:20:12.875Z,99812.13
2022-08-23T18:23:19.235Z,99815.22
2022-08-23T18:26:43.131Z,99814.19
2022-08-23T18:29:51.619Z,99791.09
2022-08-23T18:32:56.696Z,99762.88
2022-08-23T18:36:01.338Z,99809.22
2022-08-23T18:39:07.616Z,99831.75
2022-08-23T18:42:17.923Z,99829.34
2022-08-23T18:45:25.278Z,99847.00
2022-08-23T18:48:30.391Z,99842.06
2022-08-23T18:51:35.423Z,99850.41
2022-08-23T18:54:41.112Z,99824.16
2022-08-23T18:57:46.475Z,99802.03
2022-08-23T19:00:52.105Z,99831.13
2022-08-23T19:03:58.770Z,99850.81
2022-08-23T19:07:04.427Z,99862.72
2022-08-23T19:10:08.891Z,99859.56
2022-08-23T19:13:16.183Z,99812.50
2022-08-23T19:16:25.167Z,99846.91
2022-08-23T19:19:29.878Z,99859.78
2022-08-23T19:22:34.735Z,99825.31
2022-08-23T19:25:40.372Z,99841.88
2022-08-23T19:28:44.544Z,99862.91
2022-08-23T19:31:52.429Z,99861.28
2022-08-23T19:34:56.978Z,99866.59
2022-08-23T19:38:02.029Z,99864.72
2022-08-23T19:41:07.454Z,99867.56
2022-08-23T19:44:12.814Z,99869.38
2022-08-23T19:47:20.664Z,99872.88
2022-08-23T19:50:30.350Z,99834.72
2022-08-23T19:53:36.037Z,99875.53
2022-08-23T19:56:43.400Z,99851.75
2022-08-23T19:59:50.008Z,99851.00
2022-08-23T20:02:54.961Z,99875.88
2022-08-23T20:06:00.063Z,99850.91
2022-08-23T20:09:06.565Z,99808.78
2022-08-23T20:12:12.454Z,99882.53
2022-08-23T20:15:17.444Z,99894.50
2022-08-23T20:18:21.772Z,99905.13
2022-08-23T20:21:27.212Z,99909.41
2022-08-23T20:24:51.006Z,99865.19
2022-08-23T20:28:05.846Z,99924.25
2022-08-23T20:31:24.534Z,99916.78
2022-08-23T20:34:31.331Z,99925.44
2022-08-23T20:37:36.484Z,99939.09
2022-08-23T20:40:41.036Z,99955.25
2022-08-23T20:43:50.213Z,99951.94
2022-08-23T20:46:57.661Z,99958.72
2022-08-23T20:50:05.914Z,99973.84
2022-08-23T20:53:12.825Z,99950.84
2022-08-23T20:56:18.524Z,99969.94
2022-08-23T20:59:25.135Z,99964.72
2022-08-23T21:02:29.936Z,99979.59
2022-08-23T21:05:35.112Z,99969.59
2022-08-23T21:08:43.395Z,99977.59
2022-08-23T21:11:58.833Z,99982.13
2022-08-23T21:15:04.502Z,99971.16
2022-08-23T21:18:12.226Z,99961.28
2022-08-23T21:21:21.391Z,99965.56
2022-08-23T21:24:27.193Z,99987.25
2022-08-23T21:27:32.215Z,99999.22
2022-08-23T21:30:37.383Z,99990.22
2022-08-23T21:33:43.744Z,99977.13
2022-08-23T21:36:48.747Z,99993.69
2022-08-23T21:39:54.111Z,100005.88
2022-08-23T21:42:59.093Z,100002.13
2022-08-23T21:46:03.416Z,100024.75
2022-08-23T21:49:08.744Z,99969.03
2022-08-23T21:52:16.663Z,100037.84
2022-08-23T21:55:21.613Z,100039.94
2022-08-23T21:58:26.469Z,100011.38
2022-08-23T22:01:35.088Z,100005.66
2022-08-23T22:04:39.925Z,100080.84
2022-08-23T22:07:47.517Z,100072.47
2022-08-23T22:10:58.163Z,100089.41
2022-08-23T22:14:04.123Z,100090.63
2022-08-23T22:17:09.071Z,100094.31
2022-08-23T22:20:14.512Z,100082.88
2022-08-23T22:23:18.974Z,100092.91
2022-08-23T22:26:23.891Z,100076.03
2022-08-23T22:29:28.713Z,100087.13
2022-08-23T22:32:33.571Z,100103.41
2022-08-23T22:35:38.453Z,100094.69
2022-08-23T22:38:43.815Z,100103.59
2022-08-23T22:41:47.957Z,100116.97
2022-08-23T22:44:52.668Z,100118.22
2022-08-23T22:47:57.144Z,100131.06
2022-08-23T22:51:18.204Z,100120.00
2022-08-23T22:54:23.047Z,100131.22
2022-08-23T22:57:27.385Z,100140.56
2022-08-23T23:00:32.034Z,100144.19
2022-08-23T23:03:36.833Z,100147.41
2022-08-23T23:06:44.461Z,100126.94
2022-08-23T23:09:48.813Z,100123.44
2022-08-23T23:12:53.473Z,100142.19
2022-08-23T23:16:00.860Z,100140.75
2022-08-23T23:19:25.178Z,100137.72
2022-08-23T23:22:29.782Z,100126.16
2022-08-23T23:25:35.304Z,100136.16
2022-08-23T23:28:39.610Z,100145.59
2022-08-23T23:31:44.815Z,100144.38
2022-08-23T23:34:49.367Z,100146.69
2022-08-23T23:37:53.943Z,100138.22
2022-08-23T23:40:58.824Z,100131.75
2022-08-23T23:44:05.281Z,100138.34
2022-08-23T23:47:10.023Z,100136.09
2022-08-23T23:50:15.655Z,100155.63
2022-08-23T23:53:21.106Z,100145.75
2022-08-23T23:56:31.878Z,100152.50
2022-08-23T23:59:37.247Z,100145.09
